sensor_id;sensor_type;location;lat;lon;timestamp;pressure;altitude;pressure_sealevel;temperature;humidity
70833;BME280;71099;59.528;17.886;2024-02-16T00:00:08;101271.47;;;2.46;93.11
70833;BME280;71099;59.528;17.886;2024-02-16T00:02:37;101272.22;;;2.48;93.87
70833;BME280;71099;59.528;17.886;2024-02-16T00:05:02;101272.06;;;2.51;94.07
70833;BME280;71099;59.528;17.886;2024-02-16T00:07:30;101266.16;;;2.51;93.45
70833;BME280;71099;59.528;17.886;2024-02-16T00:09:55;101263.53;;;2.52;93.77
70833;BME280;71099;59.528;17.886;2024-02-16T00:12:21;101260.84;;;2.55;93.72
70833;BME280;71099;59.528;17.886;2024-02-16T00:14:47;101259.41;;;2.50;93.13
70833;BME280;71099;59.528;17.886;2024-02-16T00:17:13;101261.88;;;2.51;93.50
70833;BME280;71099;59.528;17.886;2024-02-16T00:19:38;101255.22;;;2.49;93.38
70833;BME280;71099;59.528;17.886;2024-02-16T00:22:03;101260.38;;;2.47;93.46
70833;BME280;71099;59.528;17.886;2024-02-16T00:24:29;101255.97;;;2.51;93.62
70833;BME280;71099;59.528;17.886;2024-02-16T00:26:56;101249.09;;;2.53;93.93
70833;BME280;71099;59.528;17.886;2024-02-16T00:29:22;101245.78;;;2.51;93.33
70833;BME280;71099;59.528;17.886;2024-02-16T00:31:47;101239.84;;;2.50;93.37
70833;BME280;71099;59.528;17.886;2024-02-16T00:34:14;101243.31;;;2.49;93.79
70833;BME280;71099;59.528;17.886;2024-02-16T00:36:39;101233.03;;;2.51;93.70
70833;BME280;71099;59.528;17.886;2024-02-16T00:39:05;101241.06;;;2.43;93.70
70833;BME280;71099;59.528;17.886;2024-02-16T00:41:30;101239.19;;;2.46;93.85
70833;BME280;71099;59.528;17.886;2024-02-16T00:43:56;101241.66;;;2.48;93.91
70833;BME280;71099;59.528;17.886;2024-02-16T00:46:22;101224.66;;;2.49;94.02
70833;BME280;71099;59.528;17.886;2024-02-16T00:48:51;101223.72;;;2.50;93.75
70833;BME280;71099;59.528;17.886;2024-02-16T00:51:17;101212.66;;;2.51;94.35
70833;BME280;71099;59.528;17.886;2024-02-16T00:53:42;101213.41;;;2.53;93.86
70833;BME280;71099;59.528;17.886;2024-02-16T00:56:08;101201.41;;;2.55;93.80
70833;BME280;71099;59.528;17.886;2024-02-16T00:58:34;101187.84;;;2.54;94.07
70833;BME280;71099;59.528;17.886;2024-02-16T01:00:59;101190.38;;;2.54;94.19
70833;BME280;71099;59.528;17.886;2024-02-16T01:03:24;101189.56;;;2.54;93.76
70833;BME280;71099;59.528;17.886;2024-02-16T01:05:52;101186.94;;;2.55;93.71
70833;BME280;71099;59.528;17.886;2024-02-16T01:08:17;101179.25;;;2.57;93.85
70833;BME280;71099;59.528;17.886;2024-02-16T01:10:43;101176.91;;;2.52;93.92
70833;BME280;71099;59.528;17.886;2024-02-16T01:13:08;101170.16;;;2.51;94.08
70833;BME280;71099;59.528;17.886;2024-02-16T01:15:34;101164.19;;;2.52;94.10
70833;BME280;71099;59.528;17.886;2024-02-16T01:17:59;101158.94;;;2.55;94.30
70833;BME280;71099;59.528;17.886;2024-02-16T01:20:25;101161.63;;;2.52;94.29
70833;BME280;71099;59.528;17.886;2024-02-16T01:22:51;101161.53;;;2.54;94.16
70833;BME280;71099;59.528;17.886;2024-02-16T01:25:17;101164.25;;;2.51;94.36
70833;BME280;71099;59.528;17.886;2024-02-16T01:27:43;101154.16;;;2.49;94.32
70833;BME280;71099;59.528;17.886;2024-02-16T01:30:09;101149.97;;;2.48;94.26
70833;BME280;71099;59.528;17.886;2024-02-16T01:32:34;101142.97;;;2.52;94.55
70833;BME280;71099;59.528;17.886;2024-02-16T01:35:00;101139.59;;;2.51;94.65
70833;BME280;71099;59.528;17.886;2024-02-16T01:37:25;101139.44;;;2.54;94.69
70833;BME280;71099;59.528;17.886;2024-02-16T01:39:51;101129.25;;;2.54;94.09
70833;BME280;71099;59.528;17.886;2024-02-16T01:42:16;101131.91;;;2.53;94.58
70833;BME280;71099;59.528;17.886;2024-02-16T01:44:41;101124.38;;;2.50;94.48
70833;BME280;71099;59.528;17.886;2024-02-16T01:47:07;101119.22;;;2.51;94.70
70833;BME280;71099;59.528;17.886;2024-02-16T01:49:33;101115.78;;;2.52;94.69
70833;BME280;71099;59.528;17.886;2024-02-16T01:51:59;101117.44;;;2.53;94.63
70833;BME280;71099;59.528;17.886;2024-02-16T01:54:25;101113.97;;;2.54;94.03
70833;BME280;71099;59.528;17.886;2024-02-16T01:56:50;101099.91;;;2.47;94.48
70833;BME280;71099;59.528;17.886;2024-02-16T01:59:19;101094.25;;;2.42;94.77
70833;BME280;71099;59.528;17.886;2024-02-16T02:01:44;101089.06;;;2.43;94.75
70833;BME280;71099;59.528;17.886;2024-02-16T02:04:10;101089.16;;;2.42;94.98
70833;BME280;71099;59.528;17.886;2024-02-16T02:06:36;101080.59;;;2.43;94.93
70833;BME280;71099;59.528;17.886;2024-02-16T02:09:01;101077.09;;;2.45;94.81
70833;BME280;71099;59.528;17.886;2024-02-16T02:11:26;101071.22;;;2.43;94.91
70833;BME280;71099;59.528;17.886;2024-02-16T02:13:52;101065.31;;;2.43;94.88
70833;BME280;71099;59.528;17.886;2024-02-16T02:16:19;101080.59;;;2.43;94.70
70833;BME280;71099;59.528;17.886;2024-02-16T02:18:44;101084.84;;;2.42;94.84
70833;BME280;71099;59.528;17.886;2024-02-16T02:21:10;101066.22;;;2.42;95.20
70833;BME280;71099;59.528;17.886;2024-02-16T02:23:35;101063.53;;;2.45;95.49
70833;BME280;71099;59.528;17.886;2024-02-16T02:26:01;101055.94;;;2.43;95.45
70833;BME280;71099;59.528;17.886;2024-02-16T02:28:26;101050.78;;;2.45;95.59
70833;BME280;71099;59.528;17.886;2024-02-16T02:30:52;101043.03;;;2.46;95.10
70833;BME280;71099;59.528;17.886;2024-02-16T02:33:19;101045.09;;;2.40;95.56
70833;BME280;71099;59.528;17.886;2024-02-16T02:35:45;101041.66;;;2.41;95.45
70833;BME280;71099;59.528;17.886;2024-02-16T02:38:12;101032.13;;;2.44;95.92
70833;BME280;71099;59.528;17.886;2024-02-16T02:40:37;101030.00;;;2.37;95.79
70833;BME280;71099;59.528;17.886;2024-02-16T02:43:03;101020.16;;;2.31;96.02
70833;BME280;71099;59.528;17.886;2024-02-16T02:45:29;101016.84;;;2.29;95.92
70833;BME280;71099;59.528;17.886;2024-02-16T02:47:54;101011.75;;;2.29;96.06
70833;BME280;71099;59.528;17.886;2024-02-16T02:50:20;101006.81;;;2.26;96.90
70833;BME280;71099;59.528;17.886;2024-02-16T02:52:45;100999.00;;;2.29;96.31
70833;BME280;71099;59.528;17.886;2024-02-16T02:55:11;101007.13;;;2.35;96.66
70833;BME280;71099;59.528;17.886;2024-02-16T02:57:36;100997.94;;;2.33;96.81
70833;BME280;71099;59.528;17.886;2024-02-16T03:00:06;100994.50;;;2.34;97.05
70833;BME280;71099;59.528;17.886;2024-02-16T03:02:36;100991.78;;;2.37;96.81
70833;BME280;71099;59.528;17.886;2024-02-16T03:05:02;100986.63;;;2.38;97.04
70833;BME280;71099;59.528;17.886;2024-02-16T03:07:28;100979.22;;;2.34;97.25
70833;BME280;71099;59.528;17.886;2024-02-16T03:09:53;100971.66;;;2.32;97.05
70833;BME280;71099;59.528;17.886;2024-02-16T03:12:18;100970.81;;;2.32;97.45
70833;BME280;71099;59.528;17.886;2024-02-16T03:14:44;100968.28;;;2.32;97.14
70833;BME280;71099;59.528;17.886;2024-02-16T03:17:09;100963.78;;;2.37;97.50
70833;BME280;71099;59.528;17.886;2024-02-16T03:19:34;100962.13;;;2.36;97.12
70833;BME280;71099;59.528;17.886;2024-02-16T03:22:01;100963.78;;;2.21;97.00
70833;BME280;71099;59.528;17.886;2024-02-16T03:24:26;100957.72;;;2.24;97.61
70833;BME280;71099;59.528;17.886;2024-02-16T03:26:52;100949.50;;;2.19;97.77
70833;BME280;71099;59.528;17.886;2024-02-16T03:29:17;100940.69;;;2.24;98.28
70833;BME280;71099;59.528;17.886;2024-02-16T03:31:42;100936.41;;;2.25;97.98
70833;BME280;71099;59.528;17.886;2024-02-16T03:34:08;100936.19;;;2.29;98.14
70833;BME280;71099;59.528;17.886;2024-02-16T03:36:33;100933.38;;;2.34;97.96
70833;BME280;71099;59.528;17.886;2024-02-16T03:38:59;100933.22;;;2.37;98.01
70833;BME280;71099;59.528;17.886;2024-02-16T03:41:24;100925.66;;;2.35;98.04
70833;BME280;71099;59.528;17.886;2024-02-16T03:43:50;100924.81;;;2.35;97.85
70833;BME280;71099;59.528;17.886;2024-02-16T03:46:16;100917.75;;;2.40;97.82
70833;BME280;71099;59.528;17.886;2024-02-16T03:48:42;100909.22;;;2.41;97.79
70833;BME280;71099;59.528;17.886;2024-02-16T03:51:08;100903.53;;;2.36;97.50
70833;BME280;71099;59.528;17.886;2024-02-16T03:53:33;100901.66;;;2.39;97.96
70833;BME280;71099;59.528;17.886;2024-02-16T03:55:59;100896.66;;;2.38;97.27
70833;BME280;71099;59.528;17.886;2024-02-16T03:58:25;100888.84;;;2.41;98.12
70833;BME280;71099;59.528;17.886;2024-02-16T04:00:50;100883.81;;;2.39;97.63
70833;BME280;71099;59.528;17.886;2024-02-16T04:03:18;100881.16;;;2.27;98.20
70833;BME280;71099;59.528;17.886;2024-02-16T04:05:43;100870.97;;;2.27;97.87
70833;BME280;71099;59.528;17.886;2024-02-16T04:08:09;100870.03;;;2.28;98.02
70833;BME280;71099;59.528;17.886;2024-02-16T04:10:34;100860.59;;;2.30;98.53
70833;BME280;71099;59.528;17.886;2024-02-16T04:13:01;100861.44;;;2.30;97.92
70833;BME280;71099;59.528;17.886;2024-02-16T04:15:26;100848.13;;;2.25;98.87
70833;BME280;71099;59.528;17.886;2024-02-16T04:17:52;100842.97;;;2.27;98.21
70833;BME280;71099;59.528;17.886;2024-02-16T04:20:18;100842.69;;;2.31;98.82
70833;BME280;71099;59.528;17.886;2024-02-16T04:22:44;100835.63;;;2.36;98.89
70833;BME280;71099;59.528;17.886;2024-02-16T04:25:09;100828.22;;;2.32;98.49
70833;BME280;71099;59.528;17.886;2024-02-16T04:27:36;100823.50;;;2.26;99.11
70833;BME280;71099;59.528;17.886;2024-02-16T04:30:02;100820.88;;;2.27;98.77
70833;BME280;71099;59.528;17.886;2024-02-16T04:32:28;100821.41;;;2.32;98.76
70833;BME280;71099;59.528;17.886;2024-02-16T04:34:53;100816.69;;;2.26;98.81
70833;BME280;71099;59.528;17.886;2024-02-16T04:37:21;100814.13;;;2.26;98.94
70833;BME280;71099;59.528;17.886;2024-02-16T04:39:47;100803.31;;;2.23;99.49
70833;BME280;71099;59.528;17.886;2024-02-16T04:42:12;100798.03;;;2.26;99.33
70833;BME280;71099;59.528;17.886;2024-02-16T04:44:38;100791.47;;;2.22;99.51
70833;BME280;71099;59.528;17.886;2024-02-16T04:47:06;100793.94;;;2.23;99.41
70833;BME280;71099;59.528;17.886;2024-02-16T04:49:32;100787.84;;;2.26;99.61
70833;BME280;71099;59.528;17.886;2024-02-16T04:51:57;100789.50;;;2.27;99.66
70833;BME280;71099;59.528;17.886;2024-02-16T04:54:23;100775.03;;;2.27;99.53
70833;BME280;71099;59.528;17.886;2024-02-16T04:56:49;100773.72;;;2.20;99.65
70833;BME280;71099;59.528;17.886;2024-02-16T04:59:16;100756.72;;;2.21;99.81
70833;BME280;71099;59.528;17.886;2024-02-16T05:01:43;100757.66;;;2.20;100.00
70833;BME280;71099;59.528;17.886;2024-02-16T05:04:08;100759.63;;;2.15;100.00
70833;BME280;71099;59.528;17.886;2024-02-16T05:06:38;100750.09;;;2.18;100.00
70833;BME280;71099;59.528;17.886;2024-02-16T05:09:04;100738.38;;;2.16;100.00
70833;BME280;71099;59.528;17.886;2024-02-16T05:11:32;100725.81;;;2.13;100.00
70833;BME280;71099;59.528;17.886;2024-02-16T05:13:57;100722.25;;;2.15;100.00
70833;BME280;71099;59.528;17.886;2024-02-16T05:16:23;100713.63;;;2.18;100.00
70833;BME280;71099;59.528;17.886;2024-02-16T05:18:48;100695.63;;;2.21;100.00
70833;BME280;71099;59.528;17.886;2024-02-16T05:21:14;100691.28;;;2.23;100.00
70833;BME280;71099;59.528;17.886;2024-02-16T05:23:39;100689.00;;;2.18;100.00
70833;BME280;71099;59.528;17.886;2024-02-16T05:26:05;100686.25;;;2.07;100.00
70833;BME280;71099;59.528;17.886;2024-02-16T05:28:30;100687.72;;;2.11;100.00
70833;BME280;71099;59.528;17.886;2024-02-16T05:30:57;100680.63;;;2.16;100.00
70833;BME280;71099;59.528;17.886;2024-02-16T05:33:23;100676.19;;;2.20;100.00
70833;BME280;71099;59.528;17.886;2024-02-16T05:35:48;100664.16;;;2.22;100.00
70833;BME280;71099;59.528;17.886;2024-02-16T05:38:20;100650.34;;;2.12;100.00
70833;BME280;71099;59.528;17.886;2024-02-16T05:40:58;100666.25;;;2.01;100.00
70833;BME280;71099;59.528;17.886;2024-02-16T05:43:23;100655.25;;;2.01;100.00
70833;BME280;71099;59.528;17.886;2024-02-16T05:45:49;100650.59;;;2.07;100.00
70833;BME280;71099;59.528;17.886;2024-02-16T05:48:15;100641.06;;;2.11;100.00
70833;BME280;71099;59.528;17.886;2024-02-16T05:50:40;100638.53;;;2.11;100.00
70833;BME280;71099;59.528;17.886;2024-02-16T05:53:06;100630.88;;;2.11;100.00
70833;BME280;71099;59.528;17.886;2024-02-16T05:55:32;100625.34;;;2.04;100.00
70833;BME280;71099;59.528;17.886;2024-02-16T05:57:57;100612.63;;;2.04;100.00
70833;BME280;71099;59.528;17.886;2024-02-16T06:00:23;100611.72;;;2.05;100.00
70833;BME280;71099;59.528;17.886;2024-02-16T06:02:48;100603.16;;;2.06;100.00
70833;BME280;71099;59.528;17.886;2024-02-16T06:05:14;100607.78;;;2.14;100.00
70833;BME280;71099;59.528;17.886;2024-02-16T06:07:39;100588.34;;;2.13;100.00
70833;BME280;71099;59.528;17.886;2024-02-16T06:10:06;100588.69;;;2.07;100.00
70833;BME280;71099;59.528;17.886;2024-02-16T06:12:39;100585.63;;;2.16;100.00
70833;BME280;71099;59.528;17.886;2024-02-16T06:15:05;100589.34;;;2.10;100.00
70833;BME280;71099;59.528;17.886;2024-02-16T06:17:30;100583.25;;;2.13;100.00
70833;BME280;71099;59.528;17.886;2024-02-16T06:19:56;100566.53;;;2.09;100.00
70833;BME280;71099;59.528;17.886;2024-02-16T06:22:21;100556.88;;;2.00;100.00
70833;BME280;71099;59.528;17.886;2024-02-16T06:24:46;100557.34;;;2.06;100.00
70833;BME280;71099;59.528;17.886;2024-02-16T06:27:13;100558.78;;;2.10;100.00
70833;BME280;71099;59.528;17.886;2024-02-16T06:29:38;100569.78;;;2.11;100.00
70833;BME280;71099;59.528;17.886;2024-02-16T06:32:04;100547.63;;;2.13;100.00
70833;BME280;71099;59.528;17.886;2024-02-16T06:34:30;100548.41;;;2.13;100.00
70833;BME280;71099;59.528;17.886;2024-02-16T06:36:56;100546.16;;;2.09;100.00
70833;BME280;71099;59.528;17.886;2024-02-16T06:39:22;100534.34;;;2.08;100.00
70833;BME280;71099;59.528;17.886;2024-02-16T06:41:47;100534.34;;;2.08;100.00
70833;BME280;71099;59.528;17.886;2024-02-16T06:44:14;100530.72;;;2.12;100.00
70833;BME280;71099;59.528;17.886;2024-02-16T06:46:40;100527.72;;;2.05;100.00
70833;BME280;71099;59.528;17.886;2024-02-16T06:49:06;100521.63;;;2.08;100.00
70833;BME280;71099;59.528;17.886;2024-02-16T06:51:31;100510.69;;;2.06;100.00
70833;BME280;71099;59.528;17.886;2024-02-16T06:53:56;100510.69;;;2.06;100.00
70833;BME280;71099;59.528;17.886;2024-02-16T06:56:22;100496.72;;;2.13;100.00
70833;BME280;71099;59.528;17.886;2024-02-16T06:58:48;100506.34;;;2.08;100.00
70833;BME280;71099;59.528;17.886;2024-02-16T07:01:14;100495.97;;;2.11;100.00
70833;BME280;71099;59.528;17.886;2024-02-16T07:03:40;100483.63;;;2.05;100.00
70833;BME280;71099;59.528;17.886;2024-02-16T07:06:06;100485.44;;;2.03;100.00
70833;BME280;71099;59.528;17.886;2024-02-16T07:08:36;100480.91;;;2.08;100.00
70833;BME280;71099;59.528;17.886;2024-02-16T07:11:01;100480.78;;;2.09;100.00
70833;BME280;71099;59.528;17.886;2024-02-16T07:13:31;100477.44;;;2.09;100.00
70833;BME280;71099;59.528;17.886;2024-02-16T07:15:56;100467.97;;;2.11;100.00
70833;BME280;71099;59.528;17.886;2024-02-16T07:18:22;100468.72;;;2.13;100.00
70833;BME280;71099;59.528;17.886;2024-02-16T07:20:47;100465.44;;;2.11;100.00
70833;BME280;71099;59.528;17.886;2024-02-16T07:23:13;100449.69;;;2.18;100.00
70833;BME280;71099;59.528;17.886;2024-02-16T07:25:40;100451.13;;;2.22;100.00
70833;BME280;71099;59.528;17.886;2024-02-16T07:28:07;100442.06;;;2.18;100.00
70833;BME280;71099;59.528;17.886;2024-02-16T07:30:33;100426.50;;;2.23;100.00
70833;BME280;71099;59.528;17.886;2024-02-16T07:32:59;100441.78;;;2.23;100.00
70833;BME280;71099;59.528;17.886;2024-02-16T07:35:24;100435.84;;;2.22;100.00
70833;BME280;71099;59.528;17.886;2024-02-16T07:37:50;100440.56;;;2.28;100.00
70833;BME280;71099;59.528;17.886;2024-02-16T07:40:19;100420.19;;;2.28;100.00
70833;BME280;71099;59.528;17.886;2024-02-16T07:42:45;100417.34;;;2.33;100.00
70833;BME280;71099;59.528;17.886;2024-02-16T07:45:11;100430.63;;;2.38;100.00
70833;BME280;71099;59.528;17.886;2024-02-16T07:47:41;100415.16;;;2.41;100.00
70833;BME280;71099;59.528;17.886;2024-02-16T07:50:07;100419.97;;;2.45;100.00
70833;BME280;71099;59.528;17.886;2024-02-16T07:52:32;100418.19;;;2.46;100.00
70833;BME280;71099;59.528;17.886;2024-02-16T07:54:58;100413.09;;;2.46;100.00
70833;BME280;71099;59.528;17.886;2024-02-16T07:57:24;100415.84;;;2.43;100.00
70833;BME280;71099;59.528;17.886;2024-02-16T07:59:49;100412.31;;;2.45;100.00
70833;BME280;71099;59.528;17.886;2024-02-16T08:02:15;100406.19;;;2.48;100.00
70833;BME280;71099;59.528;17.886;2024-02-16T08:04:50;100403.97;;;2.56;100.00
70833;BME280;71099;59.528;17.886;2024-02-16T08:07:15;100402.88;;;2.60;100.00
70833;BME280;71099;59.528;17.886;2024-02-16T08:09:44;100393.78;;;2.56;100.00
70833;BME280;71099;59.528;17.886;2024-02-16T08:12:10;100383.19;;;2.62;100.00
70833;BME280;71099;59.528;17.886;2024-02-16T08:14:36;100382.16;;;2.65;100.00
70833;BME280;71099;59.528;17.886;2024-02-16T08:17:03;100386.44;;;2.64;100.00
70833;BME280;71099;59.528;17.886;2024-02-16T08:19:32;100383.41;;;2.72;100.00
70833;BME280;71099;59.528;17.886;2024-02-16T08:22:06;100374.22;;;2.69;100.00
70833;BME280;71099;59.528;17.886;2024-02-16T08:24:32;100377.50;;;2.71;100.00
70833;BME280;71099;59.528;17.886;2024-02-16T08:26:58;100375.88;;;2.70;100.00
70833;BME280;71099;59.528;17.886;2024-02-16T08:29:24;100380.16;;;2.70;100.00
70833;BME280;71099;59.528;17.886;2024-02-16T08:31:50;100371.88;;;2.79;100.00
70833;BME280;71099;59.528;17.886;2024-02-16T08:34:16;100370.69;;;2.84;100.00
70833;BME280;71099;59.528;17.886;2024-02-16T08:36:48;100370.16;;;2.79;100.00
70833;BME280;71099;59.528;17.886;2024-02-16T08:39:15;100359.59;;;2.85;100.00
70833;BME280;71099;59.528;17.886;2024-02-16T08:41:40;100356.53;;;2.93;100.00
70833;BME280;71099;59.528;17.886;2024-02-16T08:44:06;100362.84;;;2.87;100.00
70833;BME280;71099;59.528;17.886;2024-02-16T08:46:38;100352.44;;;2.90;100.00
70833;BME280;71099;59.528;17.886;2024-02-16T08:49:04;100355.50;;;2.95;100.00
70833;BME280;71099;59.528;17.886;2024-02-16T08:51:31;100351.00;;;2.99;100.00
70833;BME280;71099;59.528;17.886;2024-02-16T08:53:57;100348.16;;;3.04;100.00
70833;BME280;71099;59.528;17.886;2024-02-16T08:56:22;100336.09;;;3.06;100.00
70833;BME280;71099;59.528;17.886;2024-02-16T08:58:48;100335.63;;;3.01;100.00
70833;BME280;71099;59.528;17.886;2024-02-16T09:01:13;100337.53;;;3.10;100.00
70833;BME280;71099;59.528;17.886;2024-02-16T09:03:38;100335.00;;;3.10;100.00
70833;BME280;71099;59.528;17.886;2024-02-16T09:06:05;100338.25;;;3.12;100.00
70833;BME280;71099;59.528;17.886;2024-02-16T09:08:31;100340.16;;;3.21;100.00
70833;BME280;71099;59.528;17.886;2024-02-16T09:11:07;100345.06;;;3.24;100.00
70833;BME280;71099;59.528;17.886;2024-02-16T09:13:33;100334.56;;;3.28;100.00
70833;BME280;71099;59.528;17.886;2024-02-16T09:15:59;100332.00;;;3.28;100.00
70833;BME280;71099;59.528;17.886;2024-02-16T09:18:25;100334.16;;;3.22;100.00
70833;BME280;71099;59.528;17.886;2024-02-16T09:20:51;100330.56;;;3.24;100.00
70833;BME280;71099;59.528;17.886;2024-02-16T09:23:16;100331.69;;;3.33;100.00
70833;BME280;71099;59.528;17.886;2024-02-16T09:25:42;100326.16;;;3.39;100.00
70833;BME280;71099;59.528;17.886;2024-02-16T09:28:08;100330.34;;;3.40;100.00
70833;BME280;71099;59.528;17.886;2024-02-16T09:30:34;100334.31;;;3.44;100.00
70833;BME280;71099;59.528;17.886;2024-02-16T09:32:59;100330.94;;;3.43;100.00
70833;BME280;71099;59.528;17.886;2024-02-16T09:35:25;100327.28;;;3.48;100.00
70833;BME280;71099;59.528;17.886;2024-02-16T09:37:50;100328.34;;;3.56;100.00
70833;BME280;71099;59.528;17.886;2024-02-16T09:40:15;100320.69;;;3.56;100.00
70833;BME280;71099;59.528;17.886;2024-02-16T09:42:47;100312.03;;;3.59;100.00
70833;BME280;71099;59.528;17.886;2024-02-16T09:45:15;100315.19;;;3.62;100.00
70833;BME280;71099;59.528;17.886;2024-02-16T09:47:42;100317.72;;;3.62;100.00
70833;BME280;71099;59.528;17.886;2024-02-16T09:50:09;100311.50;;;3.66;100.00
70833;BME280;71099;59.528;17.886;2024-02-16T09:52:36;100316.16;;;3.72;100.00
70833;BME280;71099;59.528;17.886;2024-02-16T09:55:01;100308.28;;;3.75;100.00
70833;BME280;71099;59.528;17.886;2024-02-16T09:57:27;100291.81;;;3.79;100.00
70833;BME280;71099;59.528;17.886;2024-02-16T09:59:52;100294.16;;;3.82;100.00
70833;BME280;71099;59.528;17.886;2024-02-16T10:02:17;100289.19;;;3.81;100.00
70833;BME280;71099;59.528;17.886;2024-02-16T10:04:43;100275.59;;;3.80;100.00
70833;BME280;71099;59.528;17.886;2024-02-16T10:07:08;100279.97;;;3.78;100.00
70833;BME280;71099;59.528;17.886;2024-02-16T10:09:34;100278.16;;;3.80;100.00
70833;BME280;71099;59.528;17.886;2024-02-16T10:11:59;100270.28;;;3.83;100.00
70833;BME280;71099;59.528;17.886;2024-02-16T10:14:25;100265.06;;;3.85;100.00
70833;BME280;71099;59.528;17.886;2024-02-16T10:17:04;100260.75;;;3.85;100.00
70833;BME280;71099;59.528;17.886;2024-02-16T10:19:32;100259.59;;;3.89;100.00
70833;BME280;71099;59.528;17.886;2024-02-16T10:22:09;100255.44;;;3.88;100.00
70833;BME280;71099;59.528;17.886;2024-02-16T10:24:35;100260.91;;;3.95;100.00
70833;BME280;71099;59.528;17.886;2024-02-16T10:27:00;100253.13;;;3.97;100.00
70833;BME280;71099;59.528;17.886;2024-02-16T10:29:27;100259.88;;;3.98;100.00
70833;BME280;71099;59.528;17.886;2024-02-16T10:31:52;100258.03;;;4.00;100.00
70833;BME280;71099;59.528;17.886;2024-02-16T10:34:19;100250.72;;;3.95;100.00
70833;BME280;71099;59.528;17.886;2024-02-16T10:36:46;100261.50;;;3.99;100.00
70833;BME280;71099;59.528;17.886;2024-02-16T10:39:12;100248.50;;;4.02;100.00
70833;BME280;71099;59.528;17.886;2024-02-16T10:41:41;100242.72;;;4.00;100.00
70833;BME280;71099;59.528;17.886;2024-02-16T10:44:06;100255.59;;;3.98;100.00
70833;BME280;71099;59.528;17.886;2024-02-16T10:46:32;100249.34;;;4.02;100.00
70833;BME280;71099;59.528;17.886;2024-02-16T10:48:59;100239.00;;;4.04;100.00
70833;BME280;71099;59.528;17.886;2024-02-16T10:51:37;100243.41;;;4.02;100.00
70833;BME280;71099;59.528;17.886;2024-02-16T10:54:04;100246.06;;;4.00;100.00
70833;BME280;71099;59.528;17.886;2024-02-16T10:56:36;100234.94;;;4.01;100.00
70833;BME280;71099;59.528;17.886;2024-02-16T10:59:07;100244.09;;;4.04;100.00
70833;BME280;71099;59.528;17.886;2024-02-16T11:01:43;100228.00;;;4.03;100.00
70833;BME280;71099;59.528;17.886;2024-02-16T11:04:10;100222.97;;;4.02;100.00
70833;BME280;71099;59.528;17.886;2024-02-16T11:06:46;100225.31;;;4.05;100.00
70833;BME280;71099;59.528;17.886;2024-02-16T11:09:25;100222.06;;;4.03;100.00
70833;BME280;71099;59.528;17.886;2024-02-16T11:11:55;100223.91;;;4.01;100.00
70833;BME280;71099;59.528;17.886;2024-02-16T11:14:23;100227.41;;;4.00;100.00
70833;BME280;71099;59.528;17.886;2024-02-16T11:16:53;100211.13;;;4.01;100.00
70833;BME280;71099;59.528;17.886;2024-02-16T11:19:19;100213.25;;;4.07;100.00
70833;BME280;71099;59.528;17.886;2024-02-16T11:22:05;100219.06;;;4.09;100.00
70833;BME280;71099;59.528;17.886;2024-02-16T11:24:35;100216.72;;;4.06;100.00
70833;BME280;71099;59.528;17.886;2024-02-16T11:27:05;100215.81;;;4.07;100.00
70833;BME280;71099;59.528;17.886;2024-02-16T11:29:37;100224.88;;;4.11;100.00
70833;BME280;71099;59.528;17.886;2024-02-16T11:32:04;100216.75;;;4.17;100.00
70833;BME280;71099;59.528;17.886;2024-02-16T11:34:31;100220.72;;;4.21;100.00
70833;BME280;71099;59.528;17.886;2024-02-16T11:36:57;100212.13;;;4.22;100.00
70833;BME280;71099;59.528;17.886;2024-02-16T11:39:23;100215.38;;;4.24;100.00
70833;BME280;71099;59.528;17.886;2024-02-16T11:42:06;100221.06;;;4.27;100.00
70833;BME280;71099;59.528;17.886;2024-02-16T11:44:33;100224.75;;;4.23;100.00
70833;BME280;71099;59.528;17.886;2024-02-16T11:46:59;100211.91;;;4.25;100.00
70833;BME280;71099;59.528;17.886;2024-02-16T11:49:26;100201.44;;;4.28;100.00
70833;BME280;71099;59.528;17.886;2024-02-16T11:51:51;100205.50;;;4.30;100.00
70833;BME280;71099;59.528;17.886;2024-02-16T11:54:17;100203.53;;;4.34;100.00
70833;BME280;71099;59.528;17.886;2024-02-16T11:56:44;100206.09;;;4.34;100.00
70833;BME280;71099;59.528;17.886;2024-02-16T11:59:15;100205.41;;;4.32;100.00
70833;BME280;71099;59.528;17.886;2024-02-16T12:01:56;100206.09;;;4.34;100.00
70833;BME280;71099;59.528;17.886;2024-02-16T12:04:27;100204.44;;;4.33;100.00
70833;BME280;71099;59.528;17.886;2024-02-16T12:07:00;100207.47;;;4.38;100.00
70833;BME280;71099;59.528;17.886;2024-02-16T12:09:26;100201.22;;;4.42;100.00
70833;BME280;71099;59.528;17.886;2024-02-16T12:11:53;100198.31;;;4.47;100.00
70833;BME280;71099;59.528;17.886;2024-02-16T12:14:21;100198.91;;;4.50;100.00
70833;BME280;71099;59.528;17.886;2024-02-16T12:16:56;100199.59;;;4.52;100.00
70833;BME280;71099;59.528;17.886;2024-02-16T12:19:22;100192.16;;;4.49;100.00
70833;BME280;71099;59.528;17.886;2024-02-16T12:21:52;100183.69;;;4.49;100.00
70833;BME280;71099;59.528;17.886;2024-02-16T12:24:20;100189.59;;;4.49;100.00
70833;BME280;71099;59.528;17.886;2024-02-16T12:26:46;100187.88;;;4.50;100.00
70833;BME280;71099;59.528;17.886;2024-02-16T12:29:12;100184.25;;;4.52;100.00
70833;BME280;71099;59.528;17.886;2024-02-16T12:31:43;100186.81;;;4.52;100.00
70833;BME280;71099;59.528;17.886;2024-02-16T12:34:09;100177.53;;;4.51;100.00
70833;BME280;71099;59.528;17.886;2024-02-16T12:36:39;100181.47;;;4.55;100.00
70833;BME280;71099;59.528;17.886;2024-02-16T12:39:05;100181.25;;;4.58;100.00